Time;durP1;ratioP1;P1;durP2;ratioP2;P2;SDS_P1;SDS_P2;PMS_P1;PMS_P2;Temp;Humidity;BMP_temperature;BMP_pressure;BME280_temperature;BME280_humidity;BME280_pressure;Samples;Min_cycle;Max_cycle;Signal;HPM_P1;HPM_P2
2021/06/11 00:01:30;;;;;;;24.27;21.87;;;;;;;19.57;53.84;101506.78;5038463;28;20190;-67
2021/06/11 00:03:55;;;;;;;23.50;21.20;;;;;;;19.41;54.46;101511.41;5058277;28;20448;-65
2021/06/11 00:06:20;;;;;;;26.77;24.00;;;;;;;19.42;54.54;101507.88;5058834;28;20178;-66
2021/06/11 00:08:46;;;;;;;24.83;20.50;;;;;;;19.61;53.91;101500.53;5039714;28;20233;-67
2021/06/11 00:11:11;;;;;;;23.60;21.17;;;;;;;19.56;54.16;101497.94;5038352;28;20186;-67
2021/06/11 00:13:36;;;;;;;34.23;28.37;;;;;;;19.80;53.46;101493.16;5038679;28;20324;-66
2021/06/11 00:16:02;;;;;;;21.73;19.60;;;;;;;19.55;54.29;101497.97;5039264;28;20204;-66
2021/06/11 00:18:27;;;;;;;27.03;24.30;;;;;;;19.78;53.64;101493.19;5038064;28;20252;-67
2021/06/11 00:20:53;;;;;;;22.27;20.10;;;;;;;19.66;54.20;101498.66;5038768;28;20174;-67
2021/06/11 00:23:19;;;;;;;23.13;20.93;;;;;;;19.53;54.73;101501.50;5037990;28;20266;-66
2021/06/11 00:25:44;;;;;;;23.53;21.03;;;;;;;19.68;54.11;101499.53;5037474;28;20453;-66
2021/06/11 00:28:09;;;;;;;23.83;21.43;;;;;;;19.70;54.25;101492.47;5041659;28;20504;-67
2021/06/11 00:30:35;;;;;;;22.77;20.57;;;;;;;19.58;54.60;101493.50;5043873;28;20227;-65
2021/06/11 00:33:01;;;;;;;21.60;19.47;;;;;;;19.59;54.53;101494.38;5057856;28;20178;-66
2021/06/11 00:35:26;;;;;;;22.20;20.10;;;;;;;19.61;54.70;101496.09;5058135;28;20565;-67
2021/06/11 00:37:51;;;;;;;22.87;20.57;;;;;;;19.60;54.89;101494.34;5045774;28;20547;-67
2021/06/11 00:40:17;;;;;;;28.90;26.00;;;;;;;19.58;54.59;101484.69;5037971;28;20453;-67
2021/06/11 00:42:42;;;;;;;23.00;20.80;;;;;;;19.50;55.17;101498.06;5038328;28;20176;-67
2021/06/11 00:45:09;;;;;;;21.70;19.50;;;;;;;19.54;54.99;101486.53;5037134;28;20193;-67
2021/06/11 00:47:34;;;;;;;21.23;19.10;;;;;;;19.38;55.53;101493.81;5040126;28;20272;-67
2021/06/11 00:50:00;;;;;;;23.63;21.33;;;;;;;19.32;56.08;101488.59;5038363;28;20470;-67
2021/06/11 00:52:25;;;;;;;26.87;24.17;;;;;;;19.41;55.46;101491.13;5037541;28;20182;-67
2021/06/11 00:54:50;;;;;;;38.03;34.03;;;;;;;19.51;55.33;101486.56;5037978;28;20564;-67
2021/06/11 00:57:16;;;;;;;24.73;22.07;;;;;;;19.44;55.71;101490.19;5037372;28;20178;-65
2021/06/11 00:59:43;;;;;;;25.33;22.93;;;;;;;19.54;55.27;101481.25;5037577;28;20190;-66
2021/06/11 01:02:09;;;;;;;25.53;23.13;;;;;;;19.40;55.72;101480.56;5037593;28;20170;-66
2021/06/11 01:04:34;;;;;;;24.53;22.23;;;;;;;19.38;55.90;101480.59;5038092;28;20652;-67
2021/06/11 01:07:00;;;;;;;24.70;22.17;;;;;;;19.66;55.23;101485.44;5039283;28;20410;-66
2021/06/11 01:09:26;;;;;;;24.60;22.10;;;;;;;19.40;55.97;101483.22;5037093;28;20261;-66
2021/06/11 01:11:51;;;;;;;46.23;41.00;;;;;;;19.48;55.80;101478.69;5037087;28;20408;-67
2021/06/11 01:14:17;;;;;;;25.90;23.50;;;;;;;19.51;55.68;101478.63;5049941;28;20197;-67
2021/06/11 01:16:42;;;;;;;23.70;21.40;;;;;;;19.40;56.09;101477.94;5051007;28;20429;-67
2021/06/11 01:19:10;;;;;;;25.83;23.33;;;;;;;19.39;56.02;101479.72;5038993;28;20268;-66
2021/06/11 01:21:44;;;;;;;25.07;22.60;;;;;;;19.31;56.46;101474.53;5036650;28;20235;-66
2021/06/11 01:24:20;;;;;;;26.87;24.20;;;;;;;19.32;56.39;101478.94;5037236;28;20473;-66
2021/06/11 01:26:49;;;;;;;24.80;22.30;;;;;;;19.29;56.62;101478.09;5038473;28;20427;-67
2021/06/11 01:29:26;;;;;;;26.50;23.70;;;;;;;19.23;56.98;101480.81;5054772;28;20877;-66
2021/06/11 01:31:56;;;;;;;25.50;22.90;;;;;;;19.44;56.25;101479.63;5050817;28;20447;-67
2021/06/11 01:34:28;;;;;;;25.03;22.63;;;;;;;19.50;55.98;101477.75;5037378;28;20392;-66
2021/06/11 01:36:55;;;;;;;24.43;22.13;;;;;;;19.42;56.39;101481.44;5037717;28;20591;-67
2021/06/11 01:39:22;;;;;;;26.43;23.63;;;;;;;19.28;56.90;101479.88;5037291;28;20820;-67
2021/06/11 01:41:50;;;;;;;24.27;21.97;;;;;;;19.47;56.23;101476.94;5036393;28;20414;-66
2021/06/11 01:44:15;;;;;;;28.20;25.30;;;;;;;19.05;57.30;101488.13;5052821;28;20436;-67
2021/06/11 01:46:42;;;;;;;26.90;24.40;;;;;;;19.10;57.56;101486.28;5037146;28;20399;-66
2021/06/11 01:49:07;;;;;;;24.87;22.37;;;;;;;18.82;58.34;101485.72;5056439;28;20205;-66
2021/06/11 01:51:34;;;;;;;26.47;23.83;;;;;;;18.78;58.46;101481.38;5057706;28;20412;-67
2021/06/11 01:54:01;;;;;;;23.90;21.33;;;;;;;18.69;58.95;101485.88;5039036;28;20194;-67
2021/06/11 01:56:27;;;;;;;24.63;22.03;;;;;;;18.99;57.87;101482.91;5039479;28;20495;-67
2021/06/11 01:58:53;;;;;;;23.63;21.53;;;;;;;19.13;57.14;101475.69;5051846;28;20440;-66
2021/06/11 02:01:19;;;;;;;23.93;21.63;;;;;;;18.97;57.77;101480.31;5060735;28;20402;-66
2021/06/11 02:03:46;;;;;;;23.17;20.97;;;;;;;19.02;57.84;101474.94;5060050;28;20473;-66
2021/06/11 02:06:14;;;;;;;31.03;27.83;;;;;;;19.02;56.77;101478.47;5059049;28;20181;-66
2021/06/11 02:08:41;;;;;;;26.97;24.30;;;;;;;19.07;56.38;101472.25;5047045;28;20469;-66
2021/06/11 02:11:06;;;;;;;25.57;22.97;;;;;;;19.06;56.24;101476.66;5044918;28;20695;-66
2021/06/11 02:13:32;;;;;;;20.13;18.20;;;;;;;18.90;56.70;101483.03;5060100;28;20374;-66
2021/06/11 02:15:58;;;;;;;20.20;18.20;;;;;;;18.87;56.89;101483.91;5059789;28;20384;-68
2021/06/11 02:18:23;;;;;;;21.23;19.07;;;;;;;18.80;56.87;101485.75;5049332;28;20197;-66
2021/06/11 02:20:52;;;;;;;20.67;18.77;;;;;;;18.84;56.49;101482.19;5040320;28;20470;-67
2021/06/11 02:23:19;;;;;;;19.60;17.80;;;;;;;18.69;56.88;101477.09;5040312;28;20240;-66
2021/06/11 02:25:44;;;;;;;18.90;17.10;;;;;;;18.66;57.61;101477.16;5039244;28;20455;-66
2021/06/11 02:28:14;;;;;;;19.90;18.10;;;;;;;18.67;57.43;101478.88;5039783;28;20519;-66
2021/06/11 02:30:40;;;;;;;20.00;18.10;;;;;;;18.61;57.61;101476.31;5040197;28;20197;-67
2021/06/11 02:33:05;;;;;;;20.43;18.60;;;;;;;18.72;57.05;101479.69;5040275;28;20883;-67
2021/06/11 02:35:30;;;;;;;20.43;18.30;;;;;;;18.86;56.73;101479.50;5040893;28;20194;-67
2021/06/11 02:37:56;;;;;;;18.87;16.97;;;;;;;18.98;56.36;101482.06;5047113;28;20244;-67
2021/06/11 02:40:21;;;;;;;18.97;17.10;;;;;;;18.77;56.82;101477.03;5041741;28;20186;-67
2021/06/11 02:42:50;;;;;;;17.70;15.90;;;;;;;18.57;57.33;101474.63;5040256;28;20193;-67
2021/06/11 02:45:20;;;;;;;20.07;17.23;;;;;;;18.79;56.86;101475.22;5051431;28;20307;-67
2021/06/11 02:47:46;;;;;;;17.90;16.10;;;;;;;18.87;56.76;101476.00;5037979;28;20853;-67
2021/06/11 02:50:14;;;;;;;19.40;17.40;;;;;;;18.45;57.57;101478.28;5041050;28;20486;-67
2021/06/11 02:52:50;;;;;;;20.20;18.30;;;;;;;18.42;58.19;101483.59;5039118;28;20392;-67
2021/06/11 02:55:16;;;;;;;19.00;17.20;;;;;;;18.77;57.09;101474.38;5039469;28;20688;-66
2021/06/11 02:57:46;;;;;;;18.50;16.67;;;;;;;18.87;56.78;101473.34;5039671;28;20797;-67
2021/06/11 03:00:13;;;;;;;19.47;17.47;;;;;;;18.45;57.82;101475.63;5041096;28;20465;-67
2021/06/11 03:02:53;;;;;;;18.80;16.90;;;;;;;18.30;58.61;101487.22;5039244;28;20395;-67
2021/06/11 03:05:20;;;;;;;18.63;16.93;;;;;;;18.66;57.63;101485.06;5038878;28;20797;-66
2021/06/11 03:07:46;;;;;;;19.60;17.70;;;;;;;18.58;57.41;101481.63;5037751;28;20458;-66
2021/06/11 03:10:12;;;;;;;19.20;17.40;;;;;;;18.67;57.60;101481.53;5039860;28;20419;-66
2021/06/11 03:12:38;;;;;;;21.17;18.97;;;;;;;18.73;57.28;101473.53;5039370;28;20404;-67
2021/06/11 03:15:05;;;;;;;22.70;18.60;;;;;;;18.67;57.70;101479.78;5039165;28;20659;-68
2021/06/11 03:17:33;;;;;;;20.00;18.20;;;;;;;18.85;57.09;101478.66;5045091;28;20198;-66
2021/06/11 03:20:05;;;;;;;19.33;17.53;;;;;;;18.75;57.06;101476.16;5038434;28;20411;-66
2021/06/11 03:22:37;;;;;;;20.57;18.67;;;;;;;18.75;57.55;101473.50;5051776;28;20437;-66
2021/06/11 03:25:16;;;;;;;19.10;17.13;;;;;;;18.66;57.82;101474.50;5059058;28;20430;-66
2021/06/11 03:27:54;;;;;;;19.53;17.63;;;;;;;18.70;57.79;101476.22;5057030;28;20433;-67
2021/06/11 03:30:22;;;;;;;20.23;18.23;;;;;;;18.61;58.46;101476.31;5059243;28;20671;-67
2021/06/11 03:32:54;;;;;;;21.03;18.97;;;;;;;18.76;57.82;101472.63;5047118;28;20506;-67
2021/06/11 03:35:34;;;;;;;21.57;19.50;;;;;;;18.87;57.68;101469.84;5038499;28;20817;-67
2021/06/11 03:38:01;;;;;;;21.67;19.37;;;;;;;19.43;56.20;101469.94;5044232;28;20764;-68
2021/06/11 03:40:29;;;;;;;19.00;17.20;;;;;;;19.95;54.27;101465.59;5037805;28;20467;-67
2021/06/11 03:42:55;;;;;;;21.13;18.97;;;;;;;20.31;53.71;101471.09;5043802;28;20414;-67
2021/06/11 03:45:21;;;;;;;18.77;16.93;;;;;;;21.01;51.80;101465.25;5058843;28;20649;-67
2021/06/11 03:47:48;;;;;;;19.30;17.57;;;;;;;21.00;51.64;101464.41;5048330;28;20293;-67
2021/06/11 03:50:18;;;;;;;21.13;19.13;;;;;;;21.89;49.63;101459.66;5038294;28;20244;-67
2021/06/11 03:52:44;;;;;;;18.20;16.37;;;;;;;21.39;50.66;101467.94;5037796;28;20449;-67
2021/06/11 03:55:12;;;;;;;26.03;23.33;;;;;;;21.67;50.22;101465.53;5039077;28;20441;-66
2021/06/11 03:57:39;;;;;;;29.27;26.30;;;;;;;21.60;50.44;101464.81;5037496;28;20933;-67
2021/06/11 04:00:05;;;;;;;20.63;18.87;;;;;;;21.83;50.41;101455.38;5037738;28;20500;-67
2021/06/11 04:02:30;;;;;;;18.80;17.13;;;;;;;22.02;48.98;101453.97;5037589;28;20391;-66
2021/06/11 04:04:57;;;;;;;26.00;23.23;;;;;;;22.66;47.79;101458.44;5054593;28;20446;-66
2021/06/11 04:07:24;;;;;;;20.30;18.27;;;;;;;22.43;48.26;101451.13;5058390;28;20269;-66
2021/06/11 04:09:53;;;;;;;19.83;18.13;;;;;;;23.05;47.16;101449.28;5054795;28;20456;-67
2021/06/11 04:12:24;;;;;;;19.97;18.17;;;;;;;22.66;47.47;101446.91;5038806;28;20773;-67
2021/06/11 04:14:51;;;;;;;19.80;18.00;;;;;;;23.05;46.92;101451.94;5052634;28;20422;-67
2021/06/11 04:17:24;;;;;;;20.63;18.93;;;;;;;23.11;47.09;101453.53;5057367;28;20412;-67
2021/06/11 04:19:54;;;;;;;22.03;19.83;;;;;;;23.19;46.67;101452.44;5057951;28;20416;-68
2021/06/11 04:22:24;;;;;;;21.83;19.63;;;;;;;23.79;45.39;101449.56;5057911;28;20409;-67
2021/06/11 04:24:49;;;;;;;20.67;18.77;;;;;;;23.26;46.54;101454.88;5041235;28;20504;-68
2021/06/11 04:27:16;;;;;;;23.57;21.43;;;;;;;23.32;46.72;101452.03;5045515;28;20502;-67
2021/06/11 04:29:42;;;;;;;21.77;19.83;;;;;;;23.26;46.84;101457.53;5048188;28;20225;-67
2021/06/11 04:32:09;;;;;;;22.50;20.60;;;;;;;23.81;45.19;101453.03;5054285;28;20430;-66
2021/06/11 04:34:34;;;;;;;23.30;21.23;;;;;;;23.63;45.93;101454.53;5054511;28;20496;-67
2021/06/11 04:36:59;;;;;;;20.57;18.67;;;;;;;23.61;45.92;101450.19;5041214;28;20456;-66
2021/06/11 04:39:25;;;;;;;22.43;20.43;;;;;;;23.50;45.95;101459.41;5039841;28;20193;-66
2021/06/11 04:41:51;;;;;;;20.30;18.60;;;;;;;24.44;43.83;101449.09;5039736;28;20209;-66
2021/06/11 04:44:16;;;;;;;20.27;18.43;;;;;;;24.99;42.96;101447.00;5038312;28;20198;-66
2021/06/11 04:46:42;;;;;;;21.60;19.80;;;;;;;24.47;43.96;101449.81;5036680;28;20246;-67
2021/06/11 04:49:08;;;;;;;24.33;22.13;;;;;;;24.60;43.65;101457.34;5037887;28;20209;-66
2021/06/11 04:51:34;;;;;;;22.10;20.10;;;;;;;24.36;44.00;101452.03;5039446;28;20196;-68
2021/06/11 04:54:00;;;;;;;24.20;22.13;;;;;;;24.29;44.37;101450.50;5046153;28;20231;-66
2021/06/11 04:56:26;;;;;;;23.97;21.87;;;;;;;24.39;44.58;101451.91;5057633;28;20436;-67
2021/06/11 04:58:53;;;;;;;24.43;22.33;;;;;;;25.45;42.30;101456.75;5057511;28;20181;-67
2021/06/11 05:01:19;;;;;;;24.50;22.53;;;;;;;25.80;41.25;101441.91;5043870;28;20189;-67
2021/06/11 05:03:44;;;;;;;25.23;22.93;;;;;;;25.52;41.96;101444.91;5038538;28;20724;-66
2021/06/11 05:06:10;;;;;;;25.20;23.10;;;;;;;26.36;40.37;101444.84;5046475;28;20450;-67
2021/06/11 05:08:36;;;;;;;23.63;21.43;;;;;;;27.08;38.23;101435.25;5043972;28;20241;-67
2021/06/11 05:11:02;;;;;;;23.50;21.60;;;;;;;26.50;39.47;101438.84;5056331;28;20531;-66
2021/06/11 05:13:28;;;;;;;23.07;21.20;;;;;;;25.57;41.31;101442.03;5043187;28;20178;-66
2021/06/11 05:15:53;;;;;;;21.60;19.90;;;;;;;26.98;38.28;101433.94;5041687;28;20509;-67
2021/06/11 05:18:18;;;;;;;21.67;19.77;;;;;;;26.34;39.09;101430.66;5047865;28;20188;-67
2021/06/11 05:20:44;;;;;;;21.33;19.43;;;;;;;26.89;37.78;101425.44;5058135;28;20228;-66
2021/06/11 05:23:09;;;;;;;19.57;17.97;;;;;;;27.53;36.45;101433.06;5057690;28;20173;-67
2021/06/11 05:25:36;;;;;;;19.60;17.93;;;;;;;27.18;37.39;101430.31;5057400;28;20764;-67
2021/06/11 05:28:02;;;;;;;27.70;25.10;;;;;;;27.26;37.33;101429.94;5057862;28;20202;-68
2021/06/11 05:30:27;;;;;;;19.20;17.70;;;;;;;26.93;37.27;101431.50;5058236;28;20427;-67
2021/06/11 05:32:54;;;;;;;18.23;16.70;;;;;;;27.20;36.33;101426.59;5060864;28;20435;-67
2021/06/11 05:35:19;;;;;;;17.47;16.00;;;;;;;27.49;36.29;101423.44;5041469;28;20202;-66
2021/06/11 05:37:45;;;;;;;17.73;16.23;;;;;;;27.85;35.32;101428.72;5041351;28;20423;-65
2021/06/11 05:40:11;;;;;;;18.23;16.40;;;;;;;28.72;33.86;101430.34;5041311;28;20232;-66
2021/06/11 05:42:36;;;;;;;16.17;14.77;;;;;;;28.91;33.46;101426.63;5041443;28;20201;-66
2021/06/11 05:45:02;;;;;;;19.87;18.10;;;;;;;29.25;32.41;101430.06;5041125;28;20447;-66
2021/06/11 05:47:27;;;;;;;15.43;14.13;;;;;;;28.44;33.06;101430.13;5042703;28;20606;-66
2021/06/11 05:49:53;;;;;;;16.03;14.73;;;;;;;28.94;32.38;101430.97;5041262;28;20178;-65
2021/06/11 05:52:18;;;;;;;14.47;13.37;;;;;;;29.22;31.53;101431.09;5040941;28;20178;-65
2021/06/11 05:54:43;;;;;;;15.60;14.30;;;;;;;29.88;30.70;101426.34;5040897;28;20186;-64
2021/06/11 05:57:09;;;;;;;14.00;12.80;;;;;;;29.05;31.61;101432.09;5041780;28;20436;-65
2021/06/11 05:59:35;;;;;;;15.90;14.60;;;;;;;30.60;29.82;101416.59;5041035;28;20177;-66
2021/06/11 06:02:00;;;;;;;15.40;14.20;;;;;;;31.12;28.27;101418.59;5044293;28;20430;-65
2021/06/11 06:04:25;;;;;;;15.57;14.37;;;;;;;30.28;30.12;101414.09;5059420;28;20235;-65
2021/06/11 06:06:50;;;;;;;18.50;17.03;;;;;;;30.64;30.16;101416.28;5052626;28;20257;-66
2021/06/11 06:09:16;;;;;;;19.53;15.50;;;;;;;31.71;28.37;101420.03;5040775;28;20214;-66
2021/06/11 06:11:41;;;;;;;14.83;13.33;;;;;;;30.90;29.19;101417.28;5041064;28;20170;-65
2021/06/11 06:14:08;;;;;;;15.20;13.73;;;;;;;30.48;30.56;101424.47;5040755;28;20459;-65
2021/06/11 06:16:33;;;;;;;15.67;14.43;;;;;;;30.08;31.07;101424.28;5039834;28;20174;-66
2021/06/11 06:18:59;;;;;;;19.53;17.90;;;;;;;31.52;27.98;101412.31;5041324;28;20420;-65
2021/06/11 06:21:24;;;;;;;17.03;15.60;;;;;;;30.24;29.78;101416.97;5040600;28;20536;-67
2021/06/11 06:23:50;;;;;;;14.10;12.77;;;;;;;30.96;27.89;101410.63;5040397;28;20192;-66
2021/06/11 06:26:16;;;;;;;13.50;12.40;;;;;;;30.98;28.38;101411.38;5040813;28;20528;-66
2021/06/11 06:28:41;;;;;;;13.00;12.03;;;;;;;30.36;29.35;101407.28;5039908;28;20236;-65
2021/06/11 06:31:06;;;;;;;13.63;12.33;;;;;;;30.08;29.93;101418.91;5050154;28;20268;-69
2021/06/11 06:33:32;;;;;;;12.93;11.53;;;;;;;30.52;29.75;101415.22;5044709;28;20558;-66
2021/06/11 06:35:57;;;;;;;13.33;12.20;;;;;;;30.88;28.79;101408.44;5054520;28;20220;-65
2021/06/11 06:38:25;;;;;;;12.77;11.80;;;;;;;31.05;27.95;101414.56;5055452;28;20200;-66
2021/06/11 06:40:57;;;;;;;13.90;12.77;;;;;;;30.83;29.07;101413.25;5046831;28;20194;-66
2021/06/11 06:43:22;;;;;;;14.43;13.23;;;;;;;30.36;29.70;101427.91;5057730;28;20416;-66
2021/06/11 06:45:48;;;;;;;15.00;13.90;;;;;;;30.67;29.32;101416.06;5051941;28;20684;-65
2021/06/11 06:48:13;;;;;;;13.40;12.40;;;;;;;31.19;28.29;101417.19;5040884;28;20206;-66
2021/06/11 06:50:38;;;;;;;11.63;10.63;;;;;;;31.45;26.91;101414.56;5042639;28;20530;-65
2021/06/11 06:53:05;;;;;;;10.43;9.60;;;;;;;31.31;26.44;101414.63;5057254;28;20173;-66
2021/06/11 06:55:30;;;;;;;11.50;10.43;;;;;;;31.90;25.77;101409.69;5059442;28;20169;-66
2021/06/11 06:57:56;;;;;;;12.20;11.20;;;;;;;31.52;26.85;101406.94;5042934;28;20448;-66
2021/06/11 07:00:21;;;;;;;11.70;10.70;;;;;;;31.93;26.37;101405.06;5039728;28;20515;-66
2021/06/11 07:02:47;;;;;;;9.80;9.00;;;;;;;31.57;26.31;101412.88;5050577;28;20197;-66
2021/06/11 07:05:15;;;;;;;10.23;9.43;;;;;;;31.63;25.96;101408.91;5057828;28;20256;-66
2021/06/11 07:07:40;;;;;;;8.87;8.20;;;;;;;32.61;25.01;101411.91;5048042;28;20570;-66
2021/06/11 07:10:06;;;;;;;9.10;8.30;;;;;;;32.25;25.78;101408.19;5051532;28;20420;-66
2021/06/11 07:12:32;;;;;;;7.90;7.20;;;;;;;32.04;24.90;101408.72;5059809;28;20211;-66
2021/06/11 07:14:57;;;;;;;7.43;6.83;;;;;;;31.52;25.47;101413.19;5063033;28;20165;-66
2021/06/11 07:17:23;;;;;;;7.60;7.10;;;;;;;32.63;24.18;101417.19;5061494;28;20189;-68
2021/06/11 07:19:48;;;;;;;7.10;6.53;;;;;;;32.44;24.29;101423.91;5067983;28;20173;-66
2021/06/11 07:22:13;;;;;;;9.70;8.03;;;;;;;31.03;26.53;101424.59;5064893;28;20272;-66
2021/06/11 07:24:39;;;;;;;7.60;7.00;;;;;;;32.26;25.10;101420.72;5045659;28;20237;-66
2021/06/11 07:27:05;;;;;;;7.73;7.13;;;;;;;32.51;24.69;101425.19;5038866;28;20193;-67
2021/06/11 07:29:30;;;;;;;8.50;7.70;;;;;;;32.53;25.70;101425.06;5056990;28;20262;-68
2021/06/11 07:31:56;;;;;;;10.87;9.80;;;;;;;34.71;23.34;101416.53;5047475;28;20464;-65
2021/06/11 07:34:22;;;;;;;8.90;8.17;;;;;;;32.73;25.21;101429.03;5055180;28;20310;-65
2021/06/11 07:36:47;;;;;;;8.10;7.50;;;;;;;33.45;24.50;101422.81;5047789;28;20202;-66
2021/06/11 07:39:13;;;;;;;7.90;7.30;;;;;;;33.32;24.86;101432.81;5044407;28;20439;-69
2021/06/11 07:41:38;;;;;;;8.60;7.90;;;;;;;32.48;26.52;101433.50;5047067;28;20196;-68
2021/06/11 07:44:04;;;;;;;7.53;6.90;;;;;;;32.81;25.48;101429.34;5052290;28;20181;-68
2021/06/11 07:46:36;;;;;;;6.70;6.20;;;;;;;33.06;24.66;101427.53;5072548;28;20228;-67
2021/06/11 07:49:01;;;;;;;7.13;6.07;;;;;;;32.76;24.73;101425.25;5040383;28;20209;-68
2021/06/11 07:51:26;;;;;;;6.10;5.60;;;;;;;34.10;23.09;101430.44;5055818;28;20416;-67
2021/06/11 07:53:52;;;;;;;5.73;5.23;;;;;;;33.10;24.38;101428.13;5045619;28;20185;-67
2021/06/11 07:56:17;;;;;;;6.57;5.93;;;;;;;33.61;23.98;101427.00;5039659;28;20504;-67
2021/06/11 07:58:42;;;;;;;6.60;6.00;;;;;;;32.81;25.13;101433.88;5037462;28;20174;-66
2021/06/11 08:01:08;;;;;;;7.20;5.80;;;;;;;32.73;25.13;101440.72;5039987;28;20178;-67
2021/06/11 08:03:33;;;;;;;6.87;6.27;;;;;;;32.68;26.03;101433.91;5038187;28;20213;-65
2021/06/11 08:05:58;;;;;;;8.10;6.27;;;;;;;32.38;26.08;101427.03;5038451;28;20578;-66
2021/06/11 08:08:24;;;;;;;7.20;6.50;;;;;;;33.14;25.73;101433.22;5054382;28;20209;-67
2021/06/11 08:10:50;;;;;;;7.43;6.83;;;;;;;32.72;25.98;101424.63;5052671;28;20177;-67
2021/06/11 08:13:15;;;;;;;6.90;6.30;;;;;;;32.36;26.27;101420.91;5038129;28;20169;-66
2021/06/11 08:15:40;;;;;;;6.73;6.23;;;;;;;33.07;25.40;101418.41;5037867;28;20177;-67
2021/06/11 08:18:06;;;;;;;7.13;6.43;;;;;;;34.16;24.14;101417.28;5037211;28;20170;-67
2021/06/11 08:20:31;;;;;;;7.07;6.47;;;;;;;32.83;25.78;101419.28;5066082;28;20563;-66
2021/06/11 08:22:56;;;;;;;8.57;6.40;;;;;;;33.84;24.65;101418.00;5057469;28;20176;-66
2021/06/11 08:25:26;;;;;;;6.60;6.10;;;;;;;33.71;24.59;101417.22;5042491;28;20595;-66
2021/06/11 08:27:52;;;;;;;6.00;5.50;;;;;;;33.86;23.89;101417.88;5057805;28;20182;-66
2021/06/11 08:30:18;;;;;;;5.90;5.50;;;;;;;34.24;23.45;101414.81;5053274;28;20764;-66
2021/06/11 08:32:43;;;;;;;8.20;5.70;;;;;;;32.17;25.94;101427.63;5037408;28;20210;-68
2021/06/11 08:35:09;;;;;;;5.47;5.07;;;;;;;33.47;24.45;101417.28;5046749;28;20191;-67
2021/06/11 08:37:34;;;;;;;6.53;5.50;;;;;;;32.65;25.87;101416.09;5053755;28;20189;-66
2021/06/11 08:40:02;;;;;;;6.47;6.07;;;;;;;33.36;24.95;101416.25;5037868;28;20174;-67
2021/06/11 08:42:29;;;;;;;6.37;5.80;;;;;;;33.49;24.66;101426.09;5039418;28;20217;-67
2021/06/11 08:44:59;;;;;;;6.30;5.70;;;;;;;34.01;24.15;101416.66;5037850;28;20428;-65
2021/06/11 08:47:29;;;;;;;6.37;5.77;;;;;;;33.73;24.66;101416.13;5021550;28;20866;-67
2021/06/11 08:49:56;;;;;;;5.70;5.30;;;;;;;33.63;25.12;101420.50;5038019;28;20453;-66
2021/06/11 08:52:22;;;;;;;6.17;5.43;;;;;;;33.40;24.72;101420.44;5036012;28;20821;-66
2021/06/11 08:54:48;;;;;;;6.07;5.47;;;;;;;34.33;23.77;101412.38;5037338;28;20491;-66
2021/06/11 08:57:14;;;;;;;5.23;4.83;;;;;;;33.63;24.66;101419.66;5039312;28;20268;-65
2021/06/11 08:59:40;;;;;;;6.00;5.50;;;;;;;34.03;24.23;101419.22;5042496;28;20821;-64
2021/06/11 09:02:05;;;;;;;6.10;4.67;;;;;;;33.83;24.70;101426.22;5038554;28;20469;-64
2021/06/11 09:04:51;;;;;;;5.73;5.33;;;;;;;34.14;23.83;101412.97;5042062;28;20190;-64
2021/06/11 09:07:33;;;;;;;4.83;4.33;;;;;;;34.22;24.17;101416.78;5037081;28;20240;-65
2021/06/11 09:10:02;;;;;;;5.40;4.90;;;;;;;33.17;25.25;101416.75;5042046;28;20476;-65
2021/06/11 09:12:39;;;;;;;4.60;4.20;;;;;;;33.78;24.72;101413.06;5038574;28;20715;-65
2021/06/11 09:15:08;;;;;;;4.53;4.10;;;;;;;34.20;24.09;101415.19;5039287;28;20444;-66
2021/06/11 09:17:36;;;;;;;5.47;4.97;;;;;;;33.28;25.26;101415.97;5037188;28;20692;-66
2021/06/11 09:20:06;;;;;;;4.90;4.40;;;;;;;34.17;24.19;101416.28;5039432;28;20459;-65
2021/06/11 09:22:49;;;;;;;5.63;5.23;;;;;;;33.68;24.74;101420.13;5038843;28;20447;-66
2021/06/11 09:25:21;;;;;;;9.90;6.13;;;;;;;33.53;24.69;101419.47;5036891;28;20484;-68
2021/06/11 09:27:51;;;;;;;5.13;4.70;;;;;;;33.66;24.66;101409.44;5036907;28;20429;-66
2021/06/11 09:30:16;;;;;;;5.37;4.97;;;;;;;33.90;24.70;101406.69;5037062;28;20448;-66
2021/06/11 09:32:42;;;;;;;5.50;5.07;;;;;;;33.84;25.15;101411.72;5045755;28;20436;-66
2021/06/11 09:35:09;;;;;;;5.30;4.90;;;;;;;33.49;25.67;101418.00;5039959;28;20182;-66
2021/06/11 09:37:37;;;;;;;6.17;5.63;;;;;;;34.84;23.17;101405.53;5050700;28;20453;-66
2021/06/11 09:40:10;;;;;;;6.57;5.33;;;;;;;33.40;25.19;101409.63;5039113;28;20428;-66
2021/06/11 09:42:40;;;;;;;5.63;5.23;;;;;;;33.30;25.79;101411.31;5053084;28;20817;-67
2021/06/11 09:45:08;;;;;;;9.03;5.73;;;;;;;33.68;24.40;101412.03;5046773;28;20727;-67
2021/06/11 09:47:45;;;;;;;5.90;5.40;;;;;;;33.58;24.56;101401.94;5036889;28;20452;-67
2021/06/11 09:50:22;;;;;;;5.60;5.07;;;;;;;33.73;25.04;101402.59;5038693;28;20420;-68
2021/06/11 09:52:51;;;;;;;6.47;5.80;;;;;;;34.27;24.08;101396.63;5043914;28;20495;-66
2021/06/11 09:55:24;;;;;;;6.00;5.40;;;;;;;33.24;25.10;101404.53;5043351;28;20463;-66
2021/06/11 09:58:15;;;;;;;6.23;5.70;;;;;;;33.61;24.83;101400.81;5040880;28;20441;-66
2021/06/11 10:00:49;;;;;;;5.13;4.63;;;;;;;33.48;25.40;101400.09;5041088;28;20451;-66
2021/06/11 10:03:35;;;;;;;5.10;4.70;;;;;;;33.46;25.30;101396.63;5049641;28;20465;-66
2021/06/11 10:06:04;;;;;;;5.17;4.77;;;;;;;34.51;24.29;101400.06;5045054;28;20449;-66
2021/06/11 10:08:30;;;;;;;5.10;4.70;;;;;;;33.06;25.63;101404.06;5043073;28;20470;-66
2021/06/11 10:10:57;;;;;;;5.10;4.70;;;;;;;34.22;24.09;101397.84;5043670;28;20439;-66
2021/06/11 10:13:23;;;;;;;6.80;4.90;;;;;;;34.41;23.92;101390.94;5051439;28;20570;-66
2021/06/11 10:15:51;;;;;;;5.83;5.33;;;;;;;33.87;24.38;101401.53;5051294;28;20526;-66
2021/06/11 10:18:16;;;;;;;5.47;5.07;;;;;;;34.65;23.74;101395.34;5041362;28;20557;-66
2021/06/11 10:20:42;;;;;;;5.90;5.50;;;;;;;33.41;24.91;101392.44;5043941;28;20486;-65
2021/06/11 10:23:11;;;;;;;5.23;4.83;;;;;;;33.76;24.98;101393.38;5046764;28;20272;-64
2021/06/11 10:25:41;;;;;;;6.47;5.87;;;;;;;32.52;26.65;101402.63;5041340;28;20602;-65
2021/06/11 10:28:06;;;;;;;6.30;5.67;;;;;;;33.85;24.94;101389.09;5041682;28;20464;-65
2021/06/11 10:30:32;;;;;;;6.03;5.20;;;;;;;33.50;25.22;101390.84;5060063;28;20443;-65
2021/06/11 10:32:59;;;;;;;6.33;5.43;;;;;;;33.03;25.96;101392.63;5043316;28;20715;-65
2021/06/11 10:35:42;;;;;;;6.40;5.33;;;;;;;33.56;25.74;101382.28;5042506;28;20900;-65
2021/06/11 10:38:30;;;;;;;7.00;5.47;;;;;;;33.18;26.02;101390.59;5046237;28;20443;-68
2021/06/11 10:40:58;;;;;;;6.43;5.83;;;;;;;32.63;26.72;101400.97;5045865;28;20459;-67
2021/06/11 10:43:37;;;;;;;6.13;5.57;;;;;;;33.66;25.75;101390.50;5051750;28;20467;-67
2021/06/11 10:46:04;;;;;;;6.13;5.63;;;;;;;32.90;26.37;101390.84;5045843;28;20431;-68
2021/06/11 10:48:57;;;;;;;11.03;5.90;;;;;;;32.71;26.48;101395.91;5047067;28;20474;-67
2021/06/11 10:51:31;;;;;;;7.43;5.60;;;;;;;32.17;26.84;101386.28;5039330;28;20431;-67
2021/06/11 10:54:15;;;;;;;7.47;5.00;;;;;;;32.61;26.37;101392.13;5044695;28;20449;-67
2021/06/11 10:56:56;;;;;;;6.37;5.60;;;;;;;32.88;26.22;101398.22;5045964;28;20522;-68
2021/06/11 10:59:46;;;;;;;6.43;5.93;;;;;;;33.03;26.01;101389.91;5047182;28;20531;-66
2021/06/11 11:02:12;;;;;;;5.07;4.67;;;;;;;33.42;25.76;101377.06;5045480;28;20519;-67
2021/06/11 11:04:40;;;;;;;7.77;5.70;;;;;;;33.84;25.71;101380.16;5047272;28;20468;-68
2021/06/11 11:07:23;;;;;;;5.90;5.10;;;;;;;32.55;26.84;101380.78;5043029;28;20545;-66
2021/06/11 11:09:54;;;;;;;5.27;4.87;;;;;;;34.37;24.70;101371.41;5039712;28;20570;-66
2021/06/11 11:12:20;;;;;;;6.13;5.53;;;;;;;34.15;24.97;101366.84;5050094;28;20451;-66
2021/06/11 11:14:45;;;;;;;5.57;5.07;;;;;;;32.62;26.88;101377.66;5048654;28;20514;-67
2021/06/11 11:17:12;;;;;;;6.17;5.50;;;;;;;32.86;26.39;101370.44;5050675;28;20429;-67